sensor_id;sensor_type;location;lat;lon;timestamp;pressure;altitude;pressure_sealevel;temperature;humidity
13033;BME280;6583;42.632;23.298;2023-03-25T00:02:17;70587.09;;;-146.40;68.51
13033;BME280;6583;42.632;23.298;2023-03-25T00:04:44;70581.03;;;-146.40;68.40
13033;BME280;6583;42.632;23.298;2023-03-25T00:07:16;70587.09;;;-146.40;68.69
13033;BME280;6583;42.632;23.298;2023-03-25T00:09:43;70595.19;;;-146.40;68.51
13033;BME280;6583;42.632;23.298;2023-03-25T00:12:10;70605.31;;;-146.40;68.97
13033;BME280;6583;42.632;23.298;2023-03-25T00:14:37;70621.50;;;-146.40;70.28
13033;BME280;6583;42.632;23.298;2023-03-25T00:17:04;70617.44;;;-146.40;70.99
13033;BME280;6583;42.632;23.298;2023-03-25T00:19:31;70613.41;;;-146.40;71.52
13033;BME280;6583;42.632;23.298;2023-03-25T00:21:58;70603.28;;;-146.40;71.65
13033;BME280;6583;42.632;23.298;2023-03-25T00:24:26;70591.16;;;-146.40;70.24
13033;BME280;6583;42.632;23.298;2023-03-25T00:26:53;70585.06;;;-146.40;70.21
13033;BME280;6583;42.632;23.298;2023-03-25T00:29:20;70583.06;;;-146.40;70.47
13033;BME280;6583;42.632;23.298;2023-03-25T00:31:46;70574.97;;;-146.40;70.70
13033;BME280;6583;42.632;23.298;2023-03-25T00:34:13;70587.09;;;-146.40;70.95
13033;BME280;6583;42.632;23.298;2023-03-25T00:36:40;70595.19;;;-146.40;70.97
13033;BME280;6583;42.632;23.298;2023-03-25T00:39:08;70611.38;;;-146.40;71.59
13033;BME280;6583;42.632;23.298;2023-03-25T00:41:36;70611.38;;;-146.40;72.41
13033;BME280;6583;42.632;23.298;2023-03-25T00:44:06;70613.41;;;-146.40;73.00
13033;BME280;6583;42.632;23.298;2023-03-25T00:46:33;70611.38;;;-146.40;72.80
13033;BME280;6583;42.632;23.298;2023-03-25T00:49:00;70607.31;;;-146.40;72.68
13033;BME280;6583;42.632;23.298;2023-03-25T00:51:27;70619.47;;;-146.40;73.10
13033;BME280;6583;42.632;23.298;2023-03-25T00:53:56;70643.75;;;-146.40;73.67
13033;BME280;6583;42.632;23.298;2023-03-25T00:56:25;70631.59;;;-146.40;74.36
13033;BME280;6583;42.632;23.298;2023-03-25T00:58:53;70631.59;;;-146.40;74.22
13033;BME280;6583;42.632;23.298;2023-03-25T01:01:22;70639.69;;;-146.40;73.95
13033;BME280;6583;42.632;23.298;2023-03-25T01:03:51;70631.59;;;-146.40;74.56
13033;BME280;6583;42.632;23.298;2023-03-25T01:06:24;70625.53;;;-146.40;74.74
13033;BME280;6583;42.632;23.298;2023-03-25T01:08:54;70623.50;;;-146.40;74.94
13033;BME280;6583;42.632;23.298;2023-03-25T01:11:24;70623.50;;;-146.40;75.42
13033;BME280;6583;42.632;23.298;2023-03-25T01:13:53;70629.59;;;-146.40;75.06
13033;BME280;6583;42.632;23.298;2023-03-25T01:16:21;70631.59;;;-146.40;75.50
13033;BME280;6583;42.632;23.298;2023-03-25T01:18:48;70619.47;;;-146.40;75.64
13033;BME280;6583;42.632;23.298;2023-03-25T01:21:15;70621.50;;;-146.40;75.81
13033;BME280;6583;42.632;23.298;2023-03-25T01:23:42;70617.44;;;-146.40;75.94
13033;BME280;6583;42.632;23.298;2023-03-25T01:26:09;70615.41;;;-146.40;75.98
13033;BME280;6583;42.632;23.298;2023-03-25T01:28:37;70615.41;;;-146.40;76.40
13033;BME280;6583;42.632;23.298;2023-03-25T01:31:07;70619.47;;;-146.40;76.08
13033;BME280;6583;42.632;23.298;2023-03-25T01:33:34;70631.59;;;-146.40;77.45
13033;BME280;6583;42.632;23.298;2023-03-25T01:36:02;70611.38;;;-146.40;77.42
13033;BME280;6583;42.632;23.298;2023-03-25T01:38:29;70607.31;;;-146.40;76.14
13033;BME280;6583;42.632;23.298;2023-03-25T01:40:56;70597.22;;;-146.40;75.51
13033;BME280;6583;42.632;23.298;2023-03-25T01:43:23;70593.16;;;-146.40;75.35
13033;BME280;6583;42.632;23.298;2023-03-25T01:45:50;70595.19;;;-146.40;75.55
13033;BME280;6583;42.632;23.298;2023-03-25T01:48:20;70599.22;;;-146.40;75.57
13033;BME280;6583;42.632;23.298;2023-03-25T01:50:53;70601.25;;;-146.40;76.23
13033;BME280;6583;42.632;23.298;2023-03-25T01:53:21;70599.22;;;-146.40;76.81
13033;BME280;6583;42.632;23.298;2023-03-25T01:55:48;70595.19;;;-146.40;76.35
13033;BME280;6583;42.632;23.298;2023-03-25T01:58:18;70595.19;;;-146.40;75.47
13033;BME280;6583;42.632;23.298;2023-03-25T02:00:47;70591.16;;;-146.40;75.48
13033;BME280;6583;42.632;23.298;2023-03-25T02:03:18;70603.28;;;-146.40;75.51
13033;BME280;6583;42.632;23.298;2023-03-25T02:05:51;70599.22;;;-146.40;76.04
13033;BME280;6583;42.632;23.298;2023-03-25T02:08:20;70607.31;;;-146.40;76.13
13033;BME280;6583;42.632;23.298;2023-03-25T02:10:48;70607.31;;;-146.40;76.81
13033;BME280;6583;42.632;23.298;2023-03-25T02:13:16;70619.47;;;-146.40;76.74
13033;BME280;6583;42.632;23.298;2023-03-25T02:16:00;70619.47;;;-146.40;76.94
13033;BME280;6583;42.632;23.298;2023-03-25T02:18:40;70623.50;;;-146.40;77.79
13033;BME280;6583;42.632;23.298;2023-03-25T02:21:39;70615.41;;;-146.40;78.42
13033;BME280;6583;42.632;23.298;2023-03-25T02:27:20;70607.31;;;-146.40;77.34
13033;BME280;6583;42.632;23.298;2023-03-25T02:33:10;70621.50;;;-146.40;77.83
13033;BME280;6583;42.632;23.298;2023-03-25T02:36:02;70615.41;;;-146.40;77.98
13033;BME280;6583;42.632;23.298;2023-03-25T02:38:43;70615.41;;;-146.40;78.41
13033;BME280;6583;42.632;23.298;2023-03-25T02:41:16;70607.31;;;-146.40;78.07
13033;BME280;6583;42.632;23.298;2023-03-25T02:43:53;70603.28;;;-146.40;76.66
13033;BME280;6583;42.632;23.298;2023-03-25T02:46:23;70597.22;;;-146.40;76.51
13033;BME280;6583;42.632;23.298;2023-03-25T02:48:54;70589.13;;;-146.40;76.66
13033;BME280;6583;42.632;23.298;2023-03-25T02:51:24;70583.06;;;-146.40;76.67
13033;BME280;6583;42.632;23.298;2023-03-25T02:53:59;70587.09;;;-146.40;76.71
13033;BME280;6583;42.632;23.298;2023-03-25T02:56:28;70595.19;;;-146.40;77.21
13033;BME280;6583;42.632;23.298;2023-03-25T02:58:58;70587.09;;;-146.40;77.97
13033;BME280;6583;42.632;23.298;2023-03-25T03:01:26;70581.03;;;-146.40;77.00
13033;BME280;6583;42.632;23.298;2023-03-25T03:03:53;70593.16;;;-146.40;77.07
13033;BME280;6583;42.632;23.298;2023-03-25T03:06:20;70591.16;;;-146.40;77.14
13033;BME280;6583;42.632;23.298;2023-03-25T03:09:25;70574.97;;;-146.40;77.22
13033;BME280;6583;42.632;23.298;2023-03-25T03:12:07;70597.22;;;-146.40;77.46
13033;BME280;6583;42.632;23.298;2023-03-25T03:14:49;70597.22;;;-146.40;77.65
13033;BME280;6583;42.632;23.298;2023-03-25T03:17:24;70593.16;;;-146.40;78.02
13033;BME280;6583;42.632;23.298;2023-03-25T03:19:55;70593.16;;;-146.40;78.72
13033;BME280;6583;42.632;23.298;2023-03-25T03:22:38;70595.19;;;-146.40;77.82
13033;BME280;6583;42.632;23.298;2023-03-25T03:25:14;70611.38;;;-146.40;77.90
13033;BME280;6583;42.632;23.298;2023-03-25T03:27:46;70607.31;;;-146.40;78.25
13033;BME280;6583;42.632;23.298;2023-03-25T03:30:17;70633.63;;;-146.40;78.83
13033;BME280;6583;42.632;23.298;2023-03-25T03:32:48;70635.66;;;-146.40;79.00
13033;BME280;6583;42.632;23.298;2023-03-25T03:35:22;70645.78;;;-146.40;79.26
13033;BME280;6583;42.632;23.298;2023-03-25T03:37:55;70641.72;;;-146.40;79.33
13033;BME280;6583;42.632;23.298;2023-03-25T03:40:26;70635.66;;;-146.40;79.87
13033;BME280;6583;42.632;23.298;2023-03-25T03:42:55;70627.56;;;-146.40;78.78
13033;BME280;6583;42.632;23.298;2023-03-25T03:45:26;70619.47;;;-146.40;78.31
13033;BME280;6583;42.632;23.298;2023-03-25T03:47:56;70619.47;;;-146.40;77.42
13033;BME280;6583;42.632;23.298;2023-03-25T03:50:29;70619.47;;;-146.40;77.71
13033;BME280;6583;42.632;23.298;2023-03-25T03:52:59;70639.69;;;-146.40;78.32
13033;BME280;6583;42.632;23.298;2023-03-25T03:55:33;70643.75;;;-146.40;79.12
13033;BME280;6583;42.632;23.298;2023-03-25T03:58:08;70649.81;;;-146.40;79.45
13033;BME280;6583;42.632;23.298;2023-03-25T04:00:42;70643.75;;;-146.40;79.50
13033;BME280;6583;42.632;23.298;2023-03-25T04:03:18;70639.69;;;-146.40;78.60
13033;BME280;6583;42.632;23.298;2023-03-25T04:05:57;70635.66;;;-146.40;78.37
13033;BME280;6583;42.632;23.298;2023-03-25T04:08:30;70623.50;;;-146.40;77.67
13033;BME280;6583;42.632;23.298;2023-03-25T04:11:03;70627.56;;;-146.40;77.99
13033;BME280;6583;42.632;23.298;2023-03-25T04:13:35;70625.53;;;-146.40;77.99
13033;BME280;6583;42.632;23.298;2023-03-25T04:16:05;70639.69;;;-146.40;78.31
13033;BME280;6583;42.632;23.298;2023-03-25T04:18:32;70639.69;;;-146.40;78.38
13033;BME280;6583;42.632;23.298;2023-03-25T04:20:59;70641.72;;;-146.40;78.67
13033;BME280;6583;42.632;23.298;2023-03-25T04:23:26;70631.59;;;-146.40;78.90
13033;BME280;6583;42.632;23.298;2023-03-25T04:25:54;70627.56;;;-146.40;78.45
13033;BME280;6583;42.632;23.298;2023-03-25T04:28:23;70621.50;;;-146.40;77.59
13033;BME280;6583;42.632;23.298;2023-03-25T04:30:50;70617.44;;;-146.40;77.26
13033;BME280;6583;42.632;23.298;2023-03-25T04:33:20;70615.41;;;-146.40;77.38
13033;BME280;6583;42.632;23.298;2023-03-25T04:35:46;70617.44;;;-146.40;77.27
13033;BME280;6583;42.632;23.298;2023-03-25T04:38:15;70645.78;;;-146.40;78.04
13033;BME280;6583;42.632;23.298;2023-03-25T04:40:42;70651.84;;;-146.40;78.64
13033;BME280;6583;42.632;23.298;2023-03-25T04:43:11;70651.84;;;-146.40;78.84
13033;BME280;6583;42.632;23.298;2023-03-25T04:45:39;70659.94;;;-146.40;79.37
13033;BME280;6583;42.632;23.298;2023-03-25T04:48:18;70661.97;;;-146.40;79.87
13033;BME280;6583;42.632;23.298;2023-03-25T04:50:46;70666.00;;;-146.40;80.37
13033;BME280;6583;42.632;23.298;2023-03-25T04:53:12;70653.88;;;-146.40;80.59
13033;BME280;6583;42.632;23.298;2023-03-25T04:55:39;70647.78;;;-146.40;80.80
13033;BME280;6583;42.632;23.298;2023-03-25T04:58:12;70639.69;;;-146.40;80.88
13033;BME280;6583;42.632;23.298;2023-03-25T05:00:41;70627.56;;;-146.40;80.76
13033;BME280;6583;42.632;23.298;2023-03-25T05:03:09;70625.53;;;-146.40;80.61
13033;BME280;6583;42.632;23.298;2023-03-25T05:05:37;70615.41;;;-146.40;80.77
13033;BME280;6583;42.632;23.298;2023-03-25T05:08:04;70599.22;;;-146.40;80.70
13033;BME280;6583;42.632;23.298;2023-03-25T05:10:30;70587.09;;;-146.40;80.23
13033;BME280;6583;42.632;23.298;2023-03-25T05:12:59;70570.91;;;-146.40;79.29
13033;BME280;6583;42.632;23.298;2023-03-25T05:15:26;70574.97;;;-146.40;79.31
13033;BME280;6583;42.632;23.298;2023-03-25T05:17:56;70562.81;;;-146.40;79.35
13033;BME280;6583;42.632;23.298;2023-03-25T05:20:23;70556.75;;;-146.40;79.23
13033;BME280;6583;42.632;23.298;2023-03-25T05:22:49;70546.63;;;-146.40;79.06
13033;BME280;6583;42.632;23.298;2023-03-25T05:25:18;70536.50;;;-146.40;78.43
13033;BME280;6583;42.632;23.298;2023-03-25T05:27:47;70522.34;;;-146.40;78.96
13033;BME280;6583;42.632;23.298;2023-03-25T05:30:14;70512.25;;;-146.40;77.89
13033;BME280;6583;42.632;23.298;2023-03-25T05:32:41;70510.22;;;-146.40;77.50
13033;BME280;6583;42.632;23.298;2023-03-25T05:35:16;70487.97;;;-146.40;74.39
13033;BME280;6583;42.632;23.298;2023-03-25T05:37:45;70481.88;;;-146.40;71.13
13033;BME280;6583;42.632;23.298;2023-03-25T05:40:14;70463.69;;;-146.40;69.24
13033;BME280;6583;42.632;23.298;2023-03-25T05:42:41;70451.53;;;-146.40;68.95
13033;BME280;6583;42.632;23.298;2023-03-25T05:45:11;70441.44;;;-146.40;66.76
13033;BME280;6583;42.632;23.298;2023-03-25T05:47:37;70421.19;;;-146.40;66.53
13033;BME280;6583;42.632;23.298;2023-03-25T05:50:05;70409.06;;;-146.40;66.90
13033;BME280;6583;42.632;23.298;2023-03-25T05:52:33;70388.81;;;-146.40;63.96
13033;BME280;6583;42.632;23.298;2023-03-25T05:55:01;70378.72;;;-146.40;63.70
13033;BME280;6583;42.632;23.298;2023-03-25T05:57:27;70364.53;;;-146.40;63.79
13033;BME280;6583;42.632;23.298;2023-03-25T05:59:54;70352.41;;;-146.40;62.83
13033;BME280;6583;42.632;23.298;2023-03-25T06:02:21;70346.34;;;-146.40;63.78
13033;BME280;6583;42.632;23.298;2023-03-25T06:04:48;70324.09;;;-146.40;61.90
13033;BME280;6583;42.632;23.298;2023-03-25T06:07:16;70311.94;;;-146.40;60.97
13033;BME280;6583;42.632;23.298;2023-03-25T06:09:46;70287.66;;;-146.40;60.60
13033;BME280;6583;42.632;23.298;2023-03-25T06:12:15;70277.56;;;-146.40;59.82
13033;BME280;6583;42.632;23.298;2023-03-25T06:14:44;70247.22;;;-146.40;58.23
13033;BME280;6583;42.632;23.298;2023-03-25T06:17:11;70235.06;;;-146.40;57.39
13033;BME280;6583;42.632;23.298;2023-03-25T06:19:38;70214.84;;;-146.40;58.01
13033;BME280;6583;42.632;23.298;2023-03-25T06:22:05;70198.66;;;-146.40;56.39
13033;BME280;6583;42.632;23.298;2023-03-25T06:24:33;70180.44;;;-146.40;56.44
13033;BME280;6583;42.632;23.298;2023-03-25T06:27:02;70168.31;;;-146.40;54.30
13033;BME280;6583;42.632;23.298;2023-03-25T06:29:28;70162.25;;;-146.40;54.12
13033;BME280;6583;42.632;23.298;2023-03-25T06:31:55;70142.00;;;-146.40;54.05
13033;BME280;6583;42.632;23.298;2023-03-25T06:34:22;70121.78;;;-146.40;53.16
13033;BME280;6583;42.632;23.298;2023-03-25T06:36:49;70113.69;;;-146.40;53.55
13033;BME280;6583;42.632;23.298;2023-03-25T06:39:18;70113.69;;;-146.40;52.61
13033;BME280;6583;42.632;23.298;2023-03-25T06:41:45;70115.72;;;-146.40;53.70
13033;BME280;6583;42.632;23.298;2023-03-25T06:44:13;70105.59;;;-146.40;51.88
13033;BME280;6583;42.632;23.298;2023-03-25T06:46:39;70103.56;;;-146.40;52.71
13033;BME280;6583;42.632;23.298;2023-03-25T06:49:06;70093.47;;;-146.40;51.90
13033;BME280;6583;42.632;23.298;2023-03-25T06:51:33;70091.44;;;-146.40;51.38
13033;BME280;6583;42.632;23.298;2023-03-25T06:54:00;70107.63;;;-146.40;53.95
13033;BME280;6583;42.632;23.298;2023-03-25T06:56:26;70115.72;;;-146.40;52.07
13033;BME280;6583;42.632;23.298;2023-03-25T06:58:53;70129.88;;;-146.40;51.62
13033;BME280;6583;42.632;23.298;2023-03-25T07:01:21;70133.91;;;-146.40;51.21
13033;BME280;6583;42.632;23.298;2023-03-25T07:03:47;70127.84;;;-146.40;51.30
13033;BME280;6583;42.632;23.298;2023-03-25T07:06:16;70125.81;;;-146.40;51.02
13033;BME280;6583;42.632;23.298;2023-03-25T07:08:43;70107.63;;;-146.40;52.28
13033;BME280;6583;42.632;23.298;2023-03-25T07:11:11;70089.41;;;-146.40;51.69
13033;BME280;6583;42.632;23.298;2023-03-25T07:13:39;70061.09;;;-146.40;50.65
13033;BME280;6583;42.632;23.298;2023-03-25T07:16:07;70050.97;;;-146.40;48.89
13033;BME280;6583;42.632;23.298;2023-03-25T07:18:35;70044.91;;;-146.40;49.37
13033;BME280;6583;42.632;23.298;2023-03-25T07:21:03;70028.72;;;-146.40;50.27
13033;BME280;6583;42.632;23.298;2023-03-25T07:23:30;70044.91;;;-146.40;50.52
13033;BME280;6583;42.632;23.298;2023-03-25T07:25:56;70030.75;;;-146.40;50.13
13033;BME280;6583;42.632;23.298;2023-03-25T07:28:23;70016.59;;;-146.40;50.13
13033;BME280;6583;42.632;23.298;2023-03-25T07:30:49;70008.50;;;-146.40;48.50
13033;BME280;6583;42.632;23.298;2023-03-25T07:33:16;69992.31;;;-146.40;48.44
13033;BME280;6583;42.632;23.298;2023-03-25T07:35:44;69988.25;;;-146.40;47.48
13033;BME280;6583;42.632;23.298;2023-03-25T07:38:11;69976.13;;;-146.40;48.07
13033;BME280;6583;42.632;23.298;2023-03-25T07:40:37;69961.97;;;-146.40;48.18
13033;BME280;6583;42.632;23.298;2023-03-25T07:43:04;69947.81;;;-146.40;48.49
13033;BME280;6583;42.632;23.298;2023-03-25T07:45:31;69935.66;;;-146.40;47.76
13033;BME280;6583;42.632;23.298;2023-03-25T07:47:59;69911.41;;;-146.40;46.29
13033;BME280;6583;42.632;23.298;2023-03-25T07:50:26;69915.44;;;-146.40;46.83
13033;BME280;6583;42.632;23.298;2023-03-25T07:52:54;69895.22;;;-146.40;45.51
13033;BME280;6583;42.632;23.298;2023-03-25T07:55:20;69889.16;;;-146.40;46.10
13033;BME280;6583;42.632;23.298;2023-03-25T07:57:47;69877.00;;;-146.40;46.99
13033;BME280;6583;42.632;23.298;2023-03-25T08:00:14;69854.75;;;-146.40;46.08
13033;BME280;6583;42.632;23.298;2023-03-25T08:02:41;69842.63;;;-146.40;45.51
13033;BME280;6583;42.632;23.298;2023-03-25T08:05:08;69830.47;;;-146.40;44.78
13033;BME280;6583;42.632;23.298;2023-03-25T08:07:34;69834.53;;;-146.40;44.78
13033;BME280;6583;42.632;23.298;2023-03-25T08:10:03;69808.22;;;-146.40;44.74
13033;BME280;6583;42.632;23.298;2023-03-25T08:12:30;69792.06;;;-146.40;44.65
13033;BME280;6583;42.632;23.298;2023-03-25T08:14:56;69792.06;;;-146.40;44.65
13033;BME280;6583;42.632;23.298;2023-03-25T08:17:24;69779.91;;;-146.40;44.46
13033;BME280;6583;42.632;23.298;2023-03-25T08:19:51;69779.91;;;-146.40;44.27
13033;BME280;6583;42.632;23.298;2023-03-25T08:22:17;69765.75;;;-146.40;44.47
13033;BME280;6583;42.632;23.298;2023-03-25T08:24:44;69743.50;;;-146.40;43.36
13033;BME280;6583;42.632;23.298;2023-03-25T08:27:13;69731.38;;;-146.40;43.85
13033;BME280;6583;42.632;23.298;2023-03-25T08:29:39;69721.25;;;-146.40;44.14
13033;BME280;6583;42.632;23.298;2023-03-25T08:32:06;69703.06;;;-146.40;43.45
13033;BME280;6583;42.632;23.298;2023-03-25T08:34:33;69684.84;;;-146.40;43.80
13033;BME280;6583;42.632;23.298;2023-03-25T08:37:04;69672.72;;;-146.40;41.84
13033;BME280;6583;42.632;23.298;2023-03-25T08:39:32;69660.56;;;-146.40;42.10
13033;BME280;6583;42.632;23.298;2023-03-25T08:42:04;69648.44;;;-146.40;41.71
13033;BME280;6583;42.632;23.298;2023-03-25T08:44:32;69644.38;;;-146.40;43.18
13033;BME280;6583;42.632;23.298;2023-03-25T08:46:58;69650.47;;;-146.40;43.41
13033;BME280;6583;42.632;23.298;2023-03-25T08:49:25;69636.31;;;-146.40;43.44
13033;BME280;6583;42.632;23.298;2023-03-25T08:51:52;69614.06;;;-146.40;43.12
13033;BME280;6583;42.632;23.298;2023-03-25T08:54:18;69601.91;;;-146.40;41.52
13033;BME280;6583;42.632;23.298;2023-03-25T08:56:45;69595.84;;;-146.40;42.29
13033;BME280;6583;42.632;23.298;2023-03-25T08:59:12;69612.03;;;-146.40;41.69
13033;BME280;6583;42.632;23.298;2023-03-25T09:01:40;69612.03;;;-146.40;42.00
13033;BME280;6583;42.632;23.298;2023-03-25T09:04:08;69607.97;;;-146.40;42.24
13033;BME280;6583;42.632;23.298;2023-03-25T09:06:34;69599.91;;;-146.40;42.71
13033;BME280;6583;42.632;23.298;2023-03-25T09:09:01;69585.72;;;-146.40;42.82
13033;BME280;6583;42.632;23.298;2023-03-25T09:11:29;69577.66;;;-146.40;41.79
13033;BME280;6583;42.632;23.298;2023-03-25T09:13:56;69571.56;;;-146.40;41.13
13033;BME280;6583;42.632;23.298;2023-03-25T09:16:23;69561.47;;;-146.40;41.28
13033;BME280;6583;42.632;23.298;2023-03-25T09:18:52;69549.31;;;-146.40;42.28
13033;BME280;6583;42.632;23.298;2023-03-25T09:21:18;69535.16;;;-146.40;41.53
13033;BME280;6583;42.632;23.298;2023-03-25T09:23:45;69523.03;;;-146.40;41.98
13033;BME280;6583;42.632;23.298;2023-03-25T09:26:12;69525.06;;;-146.40;41.58
13033;BME280;6583;42.632;23.298;2023-03-25T09:28:38;69516.97;;;-146.40;41.19
13033;BME280;6583;42.632;23.298;2023-03-25T09:31:06;69535.16;;;-146.40;41.68
13033;BME280;6583;42.632;23.298;2023-03-25T09:33:33;69555.41;;;-146.40;40.63
13033;BME280;6583;42.632;23.298;2023-03-25T09:36:02;69553.38;;;-146.40;41.39
13033;BME280;6583;42.632;23.298;2023-03-25T09:38:29;69571.56;;;-146.40;42.16
13033;BME280;6583;42.632;23.298;2023-03-25T09:40:55;69555.41;;;-146.40;42.10
13033;BME280;6583;42.632;23.298;2023-03-25T09:43:35;69533.16;;;-146.40;41.66
13033;BME280;6583;42.632;23.298;2023-03-25T09:46:05;69514.94;;;-146.40;41.71
13033;BME280;6583;42.632;23.298;2023-03-25T09:48:35;69492.69;;;-146.40;40.92
13033;BME280;6583;42.632;23.298;2023-03-25T09:51:05;69484.59;;;-146.40;41.21
13033;BME280;6583;42.632;23.298;2023-03-25T09:53:36;69474.50;;;-146.40;40.50
13033;BME280;6583;42.632;23.298;2023-03-25T09:56:06;69452.25;;;-146.40;40.87
13033;BME280;6583;42.632;23.298;2023-03-25T09:58:40;69446.19;;;-146.40;40.22
13033;BME280;6583;42.632;23.298;2023-03-25T10:01:20;69446.19;;;-146.40;39.21
13033;BME280;6583;42.632;23.298;2023-03-25T10:03:56;69460.34;;;-146.40;38.96
13033;BME280;6583;42.632;23.298;2023-03-25T10:06:29;69470.44;;;-146.40;39.87
13033;BME280;6583;42.632;23.298;2023-03-25T10:11:54;69464.38;;;-146.40;39.72
13033;BME280;6583;42.632;23.298;2023-03-25T10:14:26;69446.19;;;-146.40;39.71
13033;BME280;6583;42.632;23.298;2023-03-25T10:17:04;69434.03;;;-146.40;39.40
13033;BME280;6583;42.632;23.298;2023-03-25T10:19:44;69432.03;;;-146.40;38.41
13033;BME280;6583;42.632;23.298;2023-03-25T10:22:22;69440.09;;;-146.40;39.35
13033;BME280;6583;42.632;23.298;2023-03-25T10:24:54;69427.97;;;-146.40;38.96
13033;BME280;6583;42.632;23.298;2023-03-25T10:27:26;69413.81;;;-146.40;40.48
13033;BME280;6583;42.632;23.298;2023-03-25T10:29:59;69393.59;;;-146.40;39.41
13033;BME280;6583;42.632;23.298;2023-03-25T10:32:31;69373.38;;;-146.40;39.63
13033;BME280;6583;42.632;23.298;2023-03-25T10:35:02;69375.38;;;-146.40;39.40
13033;BME280;6583;42.632;23.298;2023-03-25T10:37:34;69377.41;;;-146.40;38.28
13033;BME280;6583;42.632;23.298;2023-03-25T10:40:13;69373.38;;;-146.40;38.59
13033;BME280;6583;42.632;23.298;2023-03-25T10:42:44;69369.31;;;-146.40;38.12
13033;BME280;6583;42.632;23.298;2023-03-25T10:45:16;69359.19;;;-146.40;38.37
13033;BME280;6583;42.632;23.298;2023-03-25T10:47:45;69353.13;;;-146.40;37.57
13033;BME280;6583;42.632;23.298;2023-03-25T10:50:13;69343.03;;;-146.40;37.79
13033;BME280;6583;42.632;23.298;2023-03-25T10:52:42;69336.97;;;-146.40;37.27
13033;BME280;6583;42.632;23.298;2023-03-25T10:55:22;69334.94;;;-146.40;35.86
13033;BME280;6583;42.632;23.298;2023-03-25T10:57:50;69312.69;;;-146.40;36.90
13033;BME280;6583;42.632;23.298;2023-03-25T11:00:19;69312.69;;;-146.40;36.30
13033;BME280;6583;42.632;23.298;2023-03-25T11:02:48;69294.47;;;-146.40;37.19
13033;BME280;6583;42.632;23.298;2023-03-25T11:05:18;69282.34;;;-146.40;36.69
13033;BME280;6583;42.632;23.298;2023-03-25T11:07:50;69270.22;;;-146.40;35.70
13033;BME280;6583;42.632;23.298;2023-03-25T11:10:20;69276.28;;;-146.40;35.28
13033;BME280;6583;42.632;23.298;2023-03-25T11:12:49;69284.38;;;-146.40;36.94
13033;BME280;6583;42.632;23.298;2023-03-25T11:15:19;69290.44;;;-146.40;36.93
13033;BME280;6583;42.632;23.298;2023-03-25T11:17:54;69288.41;;;-146.40;37.33
13033;BME280;6583;42.632;23.298;2023-03-25T11:20:26;69282.34;;;-146.40;37.50
13033;BME280;6583;42.632;23.298;2023-03-25T11:23:00;69284.38;;;-146.40;38.01
13033;BME280;6583;42.632;23.298;2023-03-25T11:25:31;69278.31;;;-146.40;37.66
13033;BME280;6583;42.632;23.298;2023-03-25T11:28:04;69272.25;;;-146.40;38.46
13033;BME280;6583;42.632;23.298;2023-03-25T11:30:31;69258.06;;;-146.40;37.55
13033;BME280;6583;42.632;23.298;2023-03-25T11:33:01;69254.03;;;-146.40;38.01
13033;BME280;6583;42.632;23.298;2023-03-25T11:35:30;69250.00;;;-146.40;36.91
13033;BME280;6583;42.632;23.298;2023-03-25T11:38:01;69247.97;;;-146.40;36.06
13033;BME280;6583;42.632;23.298;2023-03-25T11:40:49;69247.97;;;-146.40;37.00
13033;BME280;6583;42.632;23.298;2023-03-25T11:43:19;69231.78;;;-146.40;37.09
13033;BME280;6583;42.632;23.298;2023-03-25T11:45:48;69219.66;;;-146.40;36.11
13033;BME280;6583;42.632;23.298;2023-03-25T11:48:16;69199.44;;;-146.40;36.38
13033;BME280;6583;42.632;23.298;2023-03-25T11:50:45;69197.41;;;-146.40;35.17
13033;BME280;6583;42.632;23.298;2023-03-25T11:53:19;69183.25;;;-146.40;34.68
13033;BME280;6583;42.632;23.298;2023-03-25T11:55:49;69171.13;;;-146.40;35.17
13033;BME280;6583;42.632;23.298;2023-03-25T11:58:20;69171.13;;;-146.40;35.34
13033;BME280;6583;42.632;23.298;2023-03-25T12:00:48;69179.22;;;-146.40;35.30
13033;BME280;6583;42.632;23.298;2023-03-25T12:03:18;69163.03;;;-146.40;36.05
13033;BME280;6583;42.632;23.298;2023-03-25T12:05:57;69161.00;;;-146.40;34.53
13033;BME280;6583;42.632;23.298;2023-03-25T12:08:28;69158.97;;;-146.40;34.49
13033;BME280;6583;42.632;23.298;2023-03-25T12:10:58;69150.88;;;-146.40;34.85
13033;BME280;6583;42.632;23.298;2023-03-25T12:13:38;69154.94;;;-146.40;34.53
13033;BME280;6583;42.632;23.298;2023-03-25T12:16:18;69156.97;;;-146.40;35.06
13033;BME280;6583;42.632;23.298;2023-03-25T12:18:58;69169.09;;;-146.40;34.28
13033;BME280;6583;42.632;23.298;2023-03-25T12:21:40;69169.09;;;-146.40;34.67
13033;BME280;6583;42.632;23.298;2023-03-25T12:24:21;69173.13;;;-146.40;34.77
13033;BME280;6583;42.632;23.298;2023-03-25T12:27:00;69169.09;;;-146.40;35.02
13033;BME280;6583;42.632;23.298;2023-03-25T12:29:37;69171.13;;;-146.40;33.87
13033;BME280;6583;42.632;23.298;2023-03-25T12:32:16;69183.25;;;-146.40;33.83
13033;BME280;6583;42.632;23.298;2023-03-25T12:34:54;69183.25;;;-146.40;33.95
13033;BME280;6583;42.632;23.298;2023-03-25T12:37:29;69189.31;;;-146.40;34.72
13033;BME280;6583;42.632;23.298;2023-03-25T12:40:24;69207.53;;;-146.40;33.75
13033;BME280;6583;42.632;23.298;2023-03-25T12:43:02;69207.53;;;-146.40;34.71
13033;BME280;6583;42.632;23.298;2023-03-25T12:45:46;69201.44;;;-146.40;35.11
13033;BME280;6583;42.632;23.298;2023-03-25T12:48:29;69199.44;;;-146.40;35.13
13033;BME280;6583;42.632;23.298;2023-03-25T12:51:05;69199.44;;;-146.40;34.13
13033;BME280;6583;42.632;23.298;2023-03-25T12:53:44;69195.38;;;-146.40;34.77
13033;BME280;6583;42.632;23.298;2023-03-25T12:56:25;69195.38;;;-146.40;34.88
13033;BME280;6583;42.632;23.298;2023-03-25T12:59:12;69193.38;;;-146.40;35.17
13033;BME280;6583;42.632;23.298;2023-03-25T13:01:51;69197.41;;;-146.40;34.68
13033;BME280;6583;42.632;23.298;2023-03-25T13:04:37;69197.41;;;-146.40;34.66
13033;BME280;6583;42.632;23.298;2023-03-25T13:07:09;69209.53;;;-146.40;34.43